Terminal Aerodrome Forecast
Issued by NWS

Home | Current Version | Previous Version | Text Only | Print | Product List | Glossary On
Versions: 1 2 3 4 5 6 7 8 9 10 11 12 13 14 15 16 17 18 19 20 21 22 23 24 25
296
FTUS46 KMTR 071142
TAFSFO
TAF
KSFO 071142Z 0712/0818 VRB03KT P6SM FEW200
     FM071300 VRB03KT 6SM HZ SKC WS020/04030KT
     FM071700 03005G15KT P6SM SKC WS020/05030KT
     FM072100 03005G15KT P6SM SKC
     FM080000 VRB03KT P6SM SKC
     FM081000 08007KT P6SM SKC=

USA.gov is the U.S. government's official web portal to all federal, state and local government web resources and services.